sensor_id;sensor_type;location;lat;lon;timestamp;P1;durP1;ratioP1;P2;durP2;ratioP2
75851;SDS011;64500;52.632;20.656;2023-04-03T00:00:35;7.20;;;2.80;;
75851;SDS011;64500;52.632;20.656;2023-04-03T00:03:15;6.30;;;2.10;;
75851;SDS011;64500;52.632;20.656;2023-04-03T00:05:43;6.40;;;1.70;;
75851;SDS011;64500;52.632;20.656;2023-04-03T00:08:10;4.40;;;1.40;;
75851;SDS011;64500;52.632;20.656;2023-04-03T00:10:37;4.50;;;1.50;;
75851;SDS011;64500;52.632;20.656;2023-04-03T00:13:04;9.60;;;3.00;;
75851;SDS011;64500;52.632;20.656;2023-04-03T00:15:32;6.20;;;1.60;;
75851;SDS011;64500;52.632;20.656;2023-04-03T00:18:00;7.20;;;2.00;;
75851;SDS011;64500;52.632;20.656;2023-04-03T00:20:28;6.30;;;1.90;;
75851;SDS011;64500;52.632;20.656;2023-04-03T00:22:55;5.00;;;1.60;;
75851;SDS011;64500;52.632;20.656;2023-04-03T00:25:22;6.40;;;1.60;;
75851;SDS011;64500;52.632;20.656;2023-04-03T00:27:49;7.50;;;2.10;;
75851;SDS011;64500;52.632;20.656;2023-04-03T00:30:16;6.80;;;1.80;;
75851;SDS011;64500;52.632;20.656;2023-04-03T00:32:44;7.70;;;1.80;;
75851;SDS011;64500;52.632;20.656;2023-04-03T00:35:11;4.50;;;1.40;;
75851;SDS011;64500;52.632;20.656;2023-04-03T00:37:44;4.40;;;1.30;;
75851;SDS011;64500;52.632;20.656;2023-04-03T00:40:12;5.60;;;1.70;;
75851;SDS011;64500;52.632;20.656;2023-04-03T00:42:40;6.80;;;1.90;;
75851;SDS011;64500;52.632;20.656;2023-04-03T00:47:38;7.30;;;1.70;;
75851;SDS011;64500;52.632;20.656;2023-04-03T00:50:07;4.90;;;1.40;;
75851;SDS011;64500;52.632;20.656;2023-04-03T00:52:35;5.60;;;1.30;;
75851;SDS011;64500;52.632;20.656;2023-04-03T00:55:04;8.20;;;1.80;;
75851;SDS011;64500;52.632;20.656;2023-04-03T00:57:34;6.60;;;1.50;;
75851;SDS011;64500;52.632;20.656;2023-04-03T01:00:04;7.10;;;1.70;;
75851;SDS011;64500;52.632;20.656;2023-04-03T01:02:35;5.10;;;1.50;;
75851;SDS011;64500;52.632;20.656;2023-04-03T01:05:03;5.20;;;1.70;;
75851;SDS011;64500;52.632;20.656;2023-04-03T01:07:31;9.90;;;2.40;;
75851;SDS011;64500;52.632;20.656;2023-04-03T01:10:01;9.80;;;2.70;;
75851;SDS011;64500;52.632;20.656;2023-04-03T01:12:38;41.60;;;14.90;;
75851;SDS011;64500;52.632;20.656;2023-04-03T01:15:16;26.10;;;9.60;;
75851;SDS011;64500;52.632;20.656;2023-04-03T01:17:46;27.30;;;9.80;;
75851;SDS011;64500;52.632;20.656;2023-04-03T01:25:55;38.40;;;15.30;;
75851;SDS011;64500;52.632;20.656;2023-04-03T01:28:24;13.80;;;5.10;;
75851;SDS011;64500;52.632;20.656;2023-04-03T01:33:47;18.50;;;6.80;;
75851;SDS011;64500;52.632;20.656;2023-04-03T01:36:18;14.50;;;5.60;;
75851;SDS011;64500;52.632;20.656;2023-04-03T01:38:47;16.50;;;5.90;;
75851;SDS011;64500;52.632;20.656;2023-04-03T01:41:15;12.20;;;4.80;;
75851;SDS011;64500;52.632;20.656;2023-04-03T01:43:42;10.80;;;3.50;;
75851;SDS011;64500;52.632;20.656;2023-04-03T01:46:09;8.10;;;2.30;;
75851;SDS011;64500;52.632;20.656;2023-04-03T01:48:36;9.20;;;3.70;;
75851;SDS011;64500;52.632;20.656;2023-04-03T01:51:03;7.90;;;1.80;;
75851;SDS011;64500;52.632;20.656;2023-04-03T01:53:30;7.90;;;2.50;;
75851;SDS011;64500;52.632;20.656;2023-04-03T01:55:57;5.50;;;2.10;;
75851;SDS011;64500;52.632;20.656;2023-04-03T01:58:24;7.60;;;2.50;;
75851;SDS011;64500;52.632;20.656;2023-04-03T02:00:51;8.80;;;2.30;;
75851;SDS011;64500;52.632;20.656;2023-04-03T02:03:19;6.70;;;1.90;;
75851;SDS011;64500;52.632;20.656;2023-04-03T02:05:46;7.20;;;1.80;;
75851;SDS011;64500;52.632;20.656;2023-04-03T02:08:13;6.80;;;2.30;;
75851;SDS011;64500;52.632;20.656;2023-04-03T02:10:40;7.60;;;1.80;;
75851;SDS011;64500;52.632;20.656;2023-04-03T02:13:06;6.50;;;2.30;;
75851;SDS011;64500;52.632;20.656;2023-04-03T02:15:33;6.50;;;1.90;;
75851;SDS011;64500;52.632;20.656;2023-04-03T02:18:00;6.10;;;1.60;;
75851;SDS011;64500;52.632;20.656;2023-04-03T02:20:27;6.70;;;1.50;;
75851;SDS011;64500;52.632;20.656;2023-04-03T02:22:53;4.40;;;1.60;;
75851;SDS011;64500;52.632;20.656;2023-04-03T02:25:20;6.60;;;1.70;;
75851;SDS011;64500;52.632;20.656;2023-04-03T02:27:47;5.20;;;1.40;;
75851;SDS011;64500;52.632;20.656;2023-04-03T02:30:14;6.30;;;1.70;;
75851;SDS011;64500;52.632;20.656;2023-04-03T02:32:42;7.00;;;2.20;;
75851;SDS011;64500;52.632;20.656;2023-04-03T02:35:10;5.80;;;1.60;;
75851;SDS011;64500;52.632;20.656;2023-04-03T02:37:37;3.90;;;1.40;;
75851;SDS011;64500;52.632;20.656;2023-04-03T02:40:05;5.20;;;1.60;;
75851;SDS011;64500;52.632;20.656;2023-04-03T02:42:32;5.20;;;1.80;;
75851;SDS011;64500;52.632;20.656;2023-04-03T02:44:59;7.20;;;1.90;;
75851;SDS011;64500;52.632;20.656;2023-04-03T02:47:27;6.40;;;1.70;;
75851;SDS011;64500;52.632;20.656;2023-04-03T02:49:54;4.40;;;1.30;;
75851;SDS011;64500;52.632;20.656;2023-04-03T02:52:21;6.40;;;1.60;;
75851;SDS011;64500;52.632;20.656;2023-04-03T02:54:48;7.60;;;2.10;;
75851;SDS011;64500;52.632;20.656;2023-04-03T02:57:15;6.70;;;1.50;;
75851;SDS011;64500;52.632;20.656;2023-04-03T02:59:41;7.00;;;1.80;;
75851;SDS011;64500;52.632;20.656;2023-04-03T03:02:08;6.30;;;1.60;;
75851;SDS011;64500;52.632;20.656;2023-04-03T03:04:36;6.70;;;1.60;;
75851;SDS011;64500;52.632;20.656;2023-04-03T03:07:03;3.10;;;1.30;;
75851;SDS011;64500;52.632;20.656;2023-04-03T03:09:30;5.00;;;1.60;;
75851;SDS011;64500;52.632;20.656;2023-04-03T03:11:57;6.40;;;1.50;;
75851;SDS011;64500;52.632;20.656;2023-04-03T03:14:24;7.80;;;1.90;;
75851;SDS011;64500;52.632;20.656;2023-04-03T03:16:51;25.30;;;7.40;;
75851;SDS011;64500;52.632;20.656;2023-04-03T03:19:18;64.40;;;19.50;;
75851;SDS011;64500;52.632;20.656;2023-04-03T03:21:45;13.80;;;4.60;;
75851;SDS011;64500;52.632;20.656;2023-04-03T03:24:14;18.00;;;6.50;;
75851;SDS011;64500;52.632;20.656;2023-04-03T03:26:42;22.30;;;9.70;;
75851;SDS011;64500;52.632;20.656;2023-04-03T03:29:10;23.00;;;10.40;;
75851;SDS011;64500;52.632;20.656;2023-04-03T03:31:37;13.20;;;5.00;;
75851;SDS011;64500;52.632;20.656;2023-04-03T03:34:03;10.00;;;4.00;;
75851;SDS011;64500;52.632;20.656;2023-04-03T03:36:30;9.00;;;3.60;;
75851;SDS011;64500;52.632;20.656;2023-04-03T03:38:58;7.30;;;2.60;;
75851;SDS011;64500;52.632;20.656;2023-04-03T03:41:25;9.70;;;2.00;;
75851;SDS011;64500;52.632;20.656;2023-04-03T03:43:51;6.40;;;2.00;;
75851;SDS011;64500;52.632;20.656;2023-04-03T03:46:18;8.30;;;2.30;;
75851;SDS011;64500;52.632;20.656;2023-04-03T03:48:45;6.80;;;1.70;;
75851;SDS011;64500;52.632;20.656;2023-04-03T03:51:12;11.00;;;1.70;;
75851;SDS011;64500;52.632;20.656;2023-04-03T03:53:39;6.50;;;1.60;;
75851;SDS011;64500;52.632;20.656;2023-04-03T03:56:06;7.00;;;1.50;;
75851;SDS011;64500;52.632;20.656;2023-04-03T03:58:33;7.30;;;1.50;;
75851;SDS011;64500;52.632;20.656;2023-04-03T04:01:01;5.80;;;1.60;;
75851;SDS011;64500;52.632;20.656;2023-04-03T04:03:34;5.60;;;1.30;;
75851;SDS011;64500;52.632;20.656;2023-04-03T04:06:01;5.20;;;1.00;;
75851;SDS011;64500;52.632;20.656;2023-04-03T04:08:28;5.30;;;1.60;;
75851;SDS011;64500;52.632;20.656;2023-04-03T04:10:55;5.30;;;1.60;;
75851;SDS011;64500;52.632;20.656;2023-04-03T04:13:22;6.90;;;1.70;;
75851;SDS011;64500;52.632;20.656;2023-04-03T04:15:49;7.50;;;1.60;;
75851;SDS011;64500;52.632;20.656;2023-04-03T04:18:18;4.10;;;1.30;;
75851;SDS011;64500;52.632;20.656;2023-04-03T04:20:46;8.40;;;2.00;;
75851;SDS011;64500;52.632;20.656;2023-04-03T04:23:13;6.80;;;1.50;;
75851;SDS011;64500;52.632;20.656;2023-04-03T04:25:40;5.70;;;1.50;;
75851;SDS011;64500;52.632;20.656;2023-04-03T04:28:06;6.70;;;1.60;;
75851;SDS011;64500;52.632;20.656;2023-04-03T04:30:33;7.70;;;1.90;;
75851;SDS011;64500;52.632;20.656;2023-04-03T04:33:00;9.00;;;2.20;;
75851;SDS011;64500;52.632;20.656;2023-04-03T04:35:27;4.40;;;1.50;;
75851;SDS011;64500;52.632;20.656;2023-04-03T04:37:54;8.80;;;2.40;;
75851;SDS011;64500;52.632;20.656;2023-04-03T04:40:22;4.90;;;1.50;;
75851;SDS011;64500;52.632;20.656;2023-04-03T04:42:49;6.80;;;1.50;;
75851;SDS011;64500;52.632;20.656;2023-04-03T04:45:16;6.30;;;1.90;;
75851;SDS011;64500;52.632;20.656;2023-04-03T04:47:43;8.90;;;1.50;;
75851;SDS011;64500;52.632;20.656;2023-04-03T04:50:10;7.30;;;1.30;;
75851;SDS011;64500;52.632;20.656;2023-04-03T04:52:38;8.60;;;1.80;;
75851;SDS011;64500;52.632;20.656;2023-04-03T04:55:05;5.00;;;1.40;;
75851;SDS011;64500;52.632;20.656;2023-04-03T04:57:33;8.60;;;1.50;;
75851;SDS011;64500;52.632;20.656;2023-04-03T05:00:01;6.60;;;1.80;;
75851;SDS011;64500;52.632;20.656;2023-04-03T05:02:28;6.50;;;1.40;;
75851;SDS011;64500;52.632;20.656;2023-04-03T05:04:55;5.10;;;1.50;;
75851;SDS011;64500;52.632;20.656;2023-04-03T05:07:21;5.50;;;1.60;;
75851;SDS011;64500;52.632;20.656;2023-04-03T05:09:49;9.20;;;2.60;;
75851;SDS011;64500;52.632;20.656;2023-04-03T05:12:16;13.20;;;5.80;;
75851;SDS011;64500;52.632;20.656;2023-04-03T05:14:43;8.80;;;2.60;;
75851;SDS011;64500;52.632;20.656;2023-04-03T05:17:10;7.50;;;2.40;;
75851;SDS011;64500;52.632;20.656;2023-04-03T05:19:37;7.30;;;2.20;;
75851;SDS011;64500;52.632;20.656;2023-04-03T05:22:04;6.40;;;2.00;;
75851;SDS011;64500;52.632;20.656;2023-04-03T05:24:31;11.80;;;4.10;;
75851;SDS011;64500;52.632;20.656;2023-04-03T05:26:57;9.20;;;3.20;;
75851;SDS011;64500;52.632;20.656;2023-04-03T05:29:24;9.70;;;3.70;;
75851;SDS011;64500;52.632;20.656;2023-04-03T05:31:51;9.30;;;2.30;;
75851;SDS011;64500;52.632;20.656;2023-04-03T05:34:18;7.00;;;2.70;;
75851;SDS011;64500;52.632;20.656;2023-04-03T05:36:45;8.80;;;2.30;;
75851;SDS011;64500;52.632;20.656;2023-04-03T05:39:12;7.00;;;2.10;;
75851;SDS011;64500;52.632;20.656;2023-04-03T05:41:39;5.80;;;1.70;;
75851;SDS011;64500;52.632;20.656;2023-04-03T05:44:06;7.40;;;2.00;;
75851;SDS011;64500;52.632;20.656;2023-04-03T05:46:32;6.10;;;1.70;;
75851;SDS011;64500;52.632;20.656;2023-04-03T05:48:59;6.10;;;1.80;;
75851;SDS011;64500;52.632;20.656;2023-04-03T05:51:30;9.30;;;2.20;;
75851;SDS011;64500;52.632;20.656;2023-04-03T05:54:23;7.50;;;1.90;;
75851;SDS011;64500;52.632;20.656;2023-04-03T05:56:50;5.60;;;1.80;;
75851;SDS011;64500;52.632;20.656;2023-04-03T05:59:18;6.60;;;1.60;;
75851;SDS011;64500;52.632;20.656;2023-04-03T06:01:46;7.30;;;2.20;;
75851;SDS011;64500;52.632;20.656;2023-04-03T06:04:13;7.80;;;1.80;;
75851;SDS011;64500;52.632;20.656;2023-04-03T06:09:14;6.20;;;1.60;;
75851;SDS011;64500;52.632;20.656;2023-04-03T06:11:43;7.40;;;1.70;;
75851;SDS011;64500;52.632;20.656;2023-04-03T06:14:11;6.10;;;1.70;;
75851;SDS011;64500;52.632;20.656;2023-04-03T06:16:38;7.40;;;1.60;;
75851;SDS011;64500;52.632;20.656;2023-04-03T06:19:08;5.90;;;1.90;;
75851;SDS011;64500;52.632;20.656;2023-04-03T06:21:35;9.00;;;2.20;;
75851;SDS011;64500;52.632;20.656;2023-04-03T06:24:03;7.10;;;2.10;;
75851;SDS011;64500;52.632;20.656;2023-04-03T06:26:31;5.30;;;1.50;;
75851;SDS011;64500;52.632;20.656;2023-04-03T06:28:58;5.70;;;1.80;;
75851;SDS011;64500;52.632;20.656;2023-04-03T06:31:26;6.20;;;1.80;;
75851;SDS011;64500;52.632;20.656;2023-04-03T06:33:53;7.40;;;1.80;;
75851;SDS011;64500;52.632;20.656;2023-04-03T06:36:20;6.10;;;1.50;;
75851;SDS011;64500;52.632;20.656;2023-04-03T06:38:47;6.10;;;1.50;;
75851;SDS011;64500;52.632;20.656;2023-04-03T06:41:15;6.30;;;1.80;;
75851;SDS011;64500;52.632;20.656;2023-04-03T06:43:43;4.70;;;1.50;;
75851;SDS011;64500;52.632;20.656;2023-04-03T06:46:15;6.30;;;1.60;;
75851;SDS011;64500;52.632;20.656;2023-04-03T06:48:43;8.20;;;1.80;;
75851;SDS011;64500;52.632;20.656;2023-04-03T06:51:21;6.50;;;1.70;;
75851;SDS011;64500;52.632;20.656;2023-04-03T06:53:53;6.20;;;1.60;;
75851;SDS011;64500;52.632;20.656;2023-04-03T06:56:21;7.60;;;1.80;;
75851;SDS011;64500;52.632;20.656;2023-04-03T06:58:49;6.40;;;1.90;;
75851;SDS011;64500;52.632;20.656;2023-04-03T07:01:18;7.50;;;2.00;;
75851;SDS011;64500;52.632;20.656;2023-04-03T07:03:48;9.50;;;2.10;;
75851;SDS011;64500;52.632;20.656;2023-04-03T07:06:16;8.50;;;2.00;;
75851;SDS011;64500;52.632;20.656;2023-04-03T07:08:44;4.90;;;1.60;;
75851;SDS011;64500;52.632;20.656;2023-04-03T07:11:12;4.70;;;1.50;;
75851;SDS011;64500;52.632;20.656;2023-04-03T07:13:39;8.90;;;2.20;;
75851;SDS011;64500;52.632;20.656;2023-04-03T07:16:07;8.10;;;2.20;;
75851;SDS011;64500;52.632;20.656;2023-04-03T07:18:35;8.90;;;1.70;;
75851;SDS011;64500;52.632;20.656;2023-04-03T07:21:02;6.50;;;1.80;;
75851;SDS011;64500;52.632;20.656;2023-04-03T07:23:31;6.30;;;2.00;;
75851;SDS011;64500;52.632;20.656;2023-04-03T07:25:58;7.70;;;2.40;;
75851;SDS011;64500;52.632;20.656;2023-04-03T07:28:25;5.30;;;1.60;;
75851;SDS011;64500;52.632;20.656;2023-04-03T07:30:53;7.80;;;1.80;;
75851;SDS011;64500;52.632;20.656;2023-04-03T07:33:28;5.30;;;1.60;;
75851;SDS011;64500;52.632;20.656;2023-04-03T07:35:55;4.60;;;1.60;;
75851;SDS011;64500;52.632;20.656;2023-04-03T07:38:22;7.70;;;1.90;;
75851;SDS011;64500;52.632;20.656;2023-04-03T07:40:49;7.50;;;2.20;;
75851;SDS011;64500;52.632;20.656;2023-04-03T07:43:19;7.10;;;1.90;;
75851;SDS011;64500;52.632;20.656;2023-04-03T07:45:48;6.70;;;1.90;;
75851;SDS011;64500;52.632;20.656;2023-04-03T07:48:23;7.60;;;1.90;;
75851;SDS011;64500;52.632;20.656;2023-04-03T07:50:51;7.40;;;2.20;;
75851;SDS011;64500;52.632;20.656;2023-04-03T07:53:19;6.50;;;1.70;;
75851;SDS011;64500;52.632;20.656;2023-04-03T07:55:46;7.40;;;1.80;;
75851;SDS011;64500;52.632;20.656;2023-04-03T07:58:15;7.50;;;2.30;;
75851;SDS011;64500;52.632;20.656;2023-04-03T08:00:43;6.70;;;1.80;;
75851;SDS011;64500;52.632;20.656;2023-04-03T08:03:11;7.10;;;1.70;;
75851;SDS011;64500;52.632;20.656;2023-04-03T08:05:43;8.00;;;2.00;;
75851;SDS011;64500;52.632;20.656;2023-04-03T08:08:12;6.40;;;1.70;;
75851;SDS011;64500;52.632;20.656;2023-04-03T08:10:40;7.10;;;2.10;;
75851;SDS011;64500;52.632;20.656;2023-04-03T08:13:08;6.80;;;2.00;;
75851;SDS011;64500;52.632;20.656;2023-04-03T08:15:35;7.70;;;2.00;;
75851;SDS011;64500;52.632;20.656;2023-04-03T08:18:04;6.10;;;1.70;;
75851;SDS011;64500;52.632;20.656;2023-04-03T08:20:31;4.80;;;1.60;;
75851;SDS011;64500;52.632;20.656;2023-04-03T08:22:58;7.70;;;1.90;;
75851;SDS011;64500;52.632;20.656;2023-04-03T08:25:25;5.10;;;1.70;;
75851;SDS011;64500;52.632;20.656;2023-04-03T08:27:54;7.70;;;1.60;;
75851;SDS011;64500;52.632;20.656;2023-04-03T08:30:21;8.00;;;2.10;;
75851;SDS011;64500;52.632;20.656;2023-04-03T08:32:48;7.60;;;2.00;;
75851;SDS011;64500;52.632;20.656;2023-04-03T08:35:14;4.30;;;1.30;;
75851;SDS011;64500;52.632;20.656;2023-04-03T08:37:41;4.10;;;1.30;;
75851;SDS011;64500;52.632;20.656;2023-04-03T08:40:12;7.30;;;2.00;;
75851;SDS011;64500;52.632;20.656;2023-04-03T08:42:56;8.40;;;2.60;;
75851;SDS011;64500;52.632;20.656;2023-04-03T08:45:46;5.90;;;1.90;;
75851;SDS011;64500;52.632;20.656;2023-04-03T08:51:15;5.20;;;1.50;;
75851;SDS011;64500;52.632;20.656;2023-04-03T08:53:51;6.60;;;1.60;;
75851;SDS011;64500;52.632;20.656;2023-04-03T08:56:31;5.30;;;1.60;;
75851;SDS011;64500;52.632;20.656;2023-04-03T08:59:00;5.50;;;1.50;;
75851;SDS011;64500;52.632;20.656;2023-04-03T09:01:34;5.00;;;1.30;;
75851;SDS011;64500;52.632;20.656;2023-04-03T09:04:09;6.50;;;1.60;;
75851;SDS011;64500;52.632;20.656;2023-04-03T09:06:38;4.80;;;1.50;;
75851;SDS011;64500;52.632;20.656;2023-04-03T09:20:11;5.30;;;1.20;;
75851;SDS011;64500;52.632;20.656;2023-04-03T09:22:41;6.00;;;1.70;;
75851;SDS011;64500;52.632;20.656;2023-04-03T09:25:12;5.60;;;1.70;;
75851;SDS011;64500;52.632;20.656;2023-04-03T09:27:39;4.40;;;1.40;;
75851;SDS011;64500;52.632;20.656;2023-04-03T09:30:12;5.10;;;1.40;;
75851;SDS011;64500;52.632;20.656;2023-04-03T09:32:41;5.20;;;1.60;;
75851;SDS011;64500;52.632;20.656;2023-04-03T09:37:58;3.70;;;1.20;;
75851;SDS011;64500;52.632;20.656;2023-04-03T09:42:57;6.20;;;1.50;;
75851;SDS011;64500;52.632;20.656;2023-04-03T09:45:27;4.50;;;1.70;;
75851;SDS011;64500;52.632;20.656;2023-04-03T09:55:57;5.90;;;1.30;;
75851;SDS011;64500;52.632;20.656;2023-04-03T10:00:57;5.10;;;1.40;;
75851;SDS011;64500;52.632;20.656;2023-04-03T10:03:30;4.40;;;1.40;;
75851;SDS011;64500;52.632;20.656;2023-04-03T10:06:02;6.10;;;1.80;;
75851;SDS011;64500;52.632;20.656;2023-04-03T10:08:31;4.40;;;1.50;;
75851;SDS011;64500;52.632;20.656;2023-04-03T10:13:49;4.00;;;1.40;;
75851;SDS011;64500;52.632;20.656;2023-04-03T10:16:28;8.30;;;1.80;;
75851;SDS011;64500;52.632;20.656;2023-04-03T10:22:02;5.90;;;1.50;;
75851;SDS011;64500;52.632;20.656;2023-04-03T10:24:39;4.60;;;1.40;;
75851;SDS011;64500;52.632;20.656;2023-04-03T10:31:06;5.30;;;1.20;;
75851;SDS011;64500;52.632;20.656;2023-04-03T10:39:31;2.60;;;0.90;;
75851;SDS011;64500;52.632;20.656;2023-04-03T10:42:41;4.20;;;1.20;;
75851;SDS011;64500;52.632;20.656;2023-04-03T10:45:15;4.50;;;1.20;;
75851;SDS011;64500;52.632;20.656;2023-04-03T10:48:10;4.90;;;1.30;;
75851;SDS011;64500;52.632;20.656;2023-04-03T10:50:54;2.80;;;1.00;;
75851;SDS011;64500;52.632;20.656;2023-04-03T10:53:45;3.50;;;1.10;;
75851;SDS011;64500;52.632;20.656;2023-04-03T11:02:32;3.40;;;1.30;;
75851;SDS011;64500;52.632;20.656;2023-04-03T11:04:42;3.20;;;1.10;;
75851;SDS011;64500;52.632;20.656;2023-04-03T11:07:15;4.40;;;1.10;;
75851;SDS011;64500;52.632;20.656;2023-04-03T11:09:55;5.10;;;1.30;;
75851;SDS011;64500;52.632;20.656;2023-04-03T11:12:41;3.70;;;1.30;;
75851;SDS011;64500;52.632;20.656;2023-04-03T11:15:16;4.50;;;1.20;;
75851;SDS011;64500;52.632;20.656;2023-04-03T11:17:54;3.80;;;1.00;;
75851;SDS011;64500;52.632;20.656;2023-04-03T11:20:30;3.60;;;1.00;;
75851;SDS011;64500;52.632;20.656;2023-04-03T11:25:36;3.40;;;1.20;;
75851;SDS011;64500;52.632;20.656;2023-04-03T11:28:12;4.10;;;1.00;;
75851;SDS011;64500;52.632;20.656;2023-04-03T11:36:56;2.70;;;0.80;;
75851;SDS011;64500;52.632;20.656;2023-04-03T11:39:27;2.90;;;0.90;;
75851;SDS011;64500;52.632;20.656;2023-04-03T11:42:16;5.00;;;1.40;;
75851;SDS011;64500;52.632;20.656;2023-04-03T11:45:15;2.40;;;1.00;;
75851;SDS011;64500;52.632;20.656;2023-04-03T11:47:49;4.40;;;1.10;;
75851;SDS011;64500;52.632;20.656;2023-04-03T11:53:01;3.50;;;1.10;;
75851;SDS011;64500;52.632;20.656;2023-04-03T11:58:12;3.80;;;1.20;;
75851;SDS011;64500;52.632;20.656;2023-04-03T12:05:55;3.40;;;1.00;;
75851;SDS011;64500;52.632;20.656;2023-04-03T12:21:20;4.10;;;1.10;;
75851;SDS011;64500;52.632;20.656;2023-04-03T12:26:44;3.40;;;1.00;;
75851;SDS011;64500;52.632;20.656;2023-04-03T12:45:58;5.90;;;1.20;;
75851;SDS011;64500;52.632;20.656;2023-04-03T12:48:29;3.60;;;1.00;;
75851;SDS011;64500;52.632;20.656;2023-04-03T12:50:58;3.50;;;1.20;;
75851;SDS011;64500;52.632;20.656;2023-04-03T12:53:27;3.80;;;1.20;;
75851;SDS011;64500;52.632;20.656;2023-04-03T12:56:19;6.10;;;1.40;;
75851;SDS011;64500;52.632;20.656;2023-04-03T12:58:52;5.40;;;1.40;;
75851;SDS011;64500;52.632;20.656;2023-04-03T13:01:21;3.20;;;1.00;;
75851;SDS011;64500;52.632;20.656;2023-04-03T13:03:53;2.80;;;0.90;;
75851;SDS011;64500;52.632;20.656;2023-04-03T13:06:23;6.20;;;1.40;;
75851;SDS011;64500;52.632;20.656;2023-04-03T13:08:54;3.70;;;1.10;;
75851;SDS011;64500;52.632;20.656;2023-04-03T13:11:31;3.60;;;1.10;;
75851;SDS011;64500;52.632;20.656;2023-04-03T13:14:05;8.10;;;2.00;;
75851;SDS011;64500;52.632;20.656;2023-04-03T13:16:41;4.50;;;1.50;;
75851;SDS011;64500;52.632;20.656;2023-04-03T13:19:15;4.10;;;1.30;;
75851;SDS011;64500;52.632;20.656;2023-04-03T13:21:43;4.80;;;1.30;;
75851;SDS011;64500;52.632;20.656;2023-04-03T13:24:11;3.50;;;1.20;;
75851;SDS011;64500;52.632;20.656;2023-04-03T13:26:39;4.70;;;1.30;;
75851;SDS011;64500;52.632;20.656;2023-04-03T13:29:15;4.50;;;1.20;;
75851;SDS011;64500;52.632;20.656;2023-04-03T13:31:54;3.60;;;1.10;;
75851;SDS011;64500;52.632;20.656;2023-04-03T13:34:23;3.20;;;1.20;;
75851;SDS011;64500;52.632;20.656;2023-04-03T13:36:55;3.30;;;1.10;;
75851;SDS011;64500;52.632;20.656;2023-04-03T13:39:25;4.90;;;1.20;;
75851;SDS011;64500;52.632;20.656;2023-04-03T13:41:59;4.10;;;1.10;;
75851;SDS011;64500;52.632;20.656;2023-04-03T13:44:30;4.50;;;1.40;;
75851;SDS011;64500;52.632;20.656;2023-04-03T13:47:17;5.80;;;1.10;;
75851;SDS011;64500;52.632;20.656;2023-04-03T13:49:59;4.40;;;1.40;;
75851;SDS011;64500;52.632;20.656;2023-04-03T13:52:31;3.70;;;1.40;;
75851;SDS011;64500;52.632;20.656;2023-04-03T13:55:16;4.70;;;1.50;;
75851;SDS011;64500;52.632;20.656;2023-04-03T13:57:58;3.70;;;1.20;;
75851;SDS011;64500;52.632;20.656;2023-04-03T14:03:44;3.30;;;1.30;;
75851;SDS011;64500;52.632;20.656;2023-04-03T14:06:23;3.80;;;1.20;;
75851;SDS011;64500;52.632;20.656;2023-04-03T14:08:50;3.10;;;1.30;;
75851;SDS011;64500;52.632;20.656;2023-04-03T14:11:24;6.00;;;1.70;;
75851;SDS011;64500;52.632;20.656;2023-04-03T14:14:00;8.00;;;2.30;;
75851;SDS011;64500;52.632;20.656;2023-04-03T14:16:32;5.20;;;1.70;;
75851;SDS011;64500;52.632;20.656;2023-04-03T14:19:03;4.20;;;1.30;;
75851;SDS011;64500;52.632;20.656;2023-04-03T14:21:30;4.00;;;1.20;;
75851;SDS011;64500;52.632;20.656;2023-04-03T14:23:57;3.80;;;1.20;;
75851;SDS011;64500;52.632;20.656;2023-04-03T14:26:24;2.80;;;1.10;;
75851;SDS011;64500;52.632;20.656;2023-04-03T14:28:54;5.80;;;1.50;;
75851;SDS011;64500;52.632;20.656;2023-04-03T14:31:21;5.80;;;1.80;;
75851;SDS011;64500;52.632;20.656;2023-04-03T14:33:49;4.60;;;1.50;;
75851;SDS011;64500;52.632;20.656;2023-04-03T14:36:18;4.70;;;1.50;;
75851;SDS011;64500;52.632;20.656;2023-04-03T14:38:48;4.40;;;1.50;;
75851;SDS011;64500;52.632;20.656;2023-04-03T14:41:17;3.00;;;1.20;;
75851;SDS011;64500;52.632;20.656;2023-04-03T14:43:46;2.60;;;1.10;;
75851;SDS011;64500;52.632;20.656;2023-04-03T14:46:14;4.90;;;1.60;;
75851;SDS011;64500;52.632;20.656;2023-04-03T14:48:44;3.60;;;1.20;;
75851;SDS011;64500;52.632;20.656;2023-04-03T14:51:13;5.80;;;1.60;;
75851;SDS011;64500;52.632;20.656;2023-04-03T14:53:41;4.80;;;1.60;;
75851;SDS011;64500;52.632;20.656;2023-04-03T14:56:18;6.10;;;2.10;;
75851;SDS011;64500;52.632;20.656;2023-04-03T14:58:54;4.80;;;1.70;;
75851;SDS011;64500;52.632;20.656;2023-04-03T15:01:23;6.40;;;1.60;;
75851;SDS011;64500;52.632;20.656;2023-04-03T15:03:51;4.40;;;1.60;;
75851;SDS011;64500;52.632;20.656;2023-04-03T15:06:18;5.70;;;1.50;;
75851;SDS011;64500;52.632;20.656;2023-04-03T15:08:46;7.40;;;1.60;;
75851;SDS011;64500;52.632;20.656;2023-04-03T15:11:14;5.10;;;1.40;;
75851;SDS011;64500;52.632;20.656;2023-04-03T15:13:41;6.50;;;1.70;;
75851;SDS011;64500;52.632;20.656;2023-04-03T15:16:15;4.60;;;1.40;;
75851;SDS011;64500;52.632;20.656;2023-04-03T15:18:45;4.90;;;1.50;;
75851;SDS011;64500;52.632;20.656;2023-04-03T15:21:13;5.70;;;2.20;;
75851;SDS011;64500;52.632;20.656;2023-04-03T15:23:40;5.90;;;1.80;;
75851;SDS011;64500;52.632;20.656;2023-04-03T15:26:08;6.80;;;2.60;;
75851;SDS011;64500;52.632;20.656;2023-04-03T15:28:37;9.70;;;4.10;;
75851;SDS011;64500;52.632;20.656;2023-04-03T15:31:05;9.20;;;4.00;;
75851;SDS011;64500;52.632;20.656;2023-04-03T15:33:33;13.90;;;7.60;;
75851;SDS011;64500;52.632;20.656;2023-04-03T15:36:01;10.00;;;4.60;;
75851;SDS011;64500;52.632;20.656;2023-04-03T15:38:29;4.90;;;1.50;;
75851;SDS011;64500;52.632;20.656;2023-04-03T15:40:56;4.70;;;1.70;;
75851;SDS011;64500;52.632;20.656;2023-04-03T15:43:23;14.40;;;7.30;;
75851;SDS011;64500;52.632;20.656;2023-04-03T15:45:50;14.20;;;6.80;;
75851;SDS011;64500;52.632;20.656;2023-04-03T15:48:18;11.00;;;4.90;;
75851;SDS011;64500;52.632;20.656;2023-04-03T15:50:45;8.60;;;3.00;;
75851;SDS011;64500;52.632;20.656;2023-04-03T15:53:12;8.60;;;3.00;;
75851;SDS011;64500;52.632;20.656;2023-04-03T15:55:41;5.60;;;1.90;;
75851;SDS011;64500;52.632;20.656;2023-04-03T15:58:08;8.70;;;2.40;;
75851;SDS011;64500;52.632;20.656;2023-04-03T16:00:35;8.90;;;2.50;;
75851;SDS011;64500;52.632;20.656;2023-04-03T16:03:10;6.00;;;1.70;;
75851;SDS011;64500;52.632;20.656;2023-04-03T16:05:41;5.90;;;2.00;;
75851;SDS011;64500;52.632;20.656;2023-04-03T16:08:09;5.90;;;1.60;;
75851;SDS011;64500;52.632;20.656;2023-04-03T16:10:36;6.10;;;2.30;;
75851;SDS011;64500;52.632;20.656;2023-04-03T16:13:04;7.90;;;2.50;;
75851;SDS011;64500;52.632;20.656;2023-04-03T16:15:32;6.80;;;1.70;;
75851;SDS011;64500;52.632;20.656;2023-04-03T16:18:00;6.60;;;1.90;;
75851;SDS011;64500;52.632;20.656;2023-04-03T16:20:27;7.40;;;2.00;;
75851;SDS011;64500;52.632;20.656;2023-04-03T16:22:56;7.30;;;2.20;;
75851;SDS011;64500;52.632;20.656;2023-04-03T16:25:25;7.10;;;2.10;;
75851;SDS011;64500;52.632;20.656;2023-04-03T16:27:52;6.10;;;1.90;;
75851;SDS011;64500;52.632;20.656;2023-04-03T16:30:20;6.80;;;2.30;;
75851;SDS011;64500;52.632;20.656;2023-04-03T16:32:47;7.60;;;2.10;;
75851;SDS011;64500;52.632;20.656;2023-04-03T16:35:14;6.50;;;2.10;;
75851;SDS011;64500;52.632;20.656;2023-04-03T16:37:42;8.70;;;2.80;;
75851;SDS011;64500;52.632;20.656;2023-04-03T16:40:09;8.30;;;2.20;;
75851;SDS011;64500;52.632;20.656;2023-04-03T16:42:38;7.80;;;2.20;;
75851;SDS011;64500;52.632;20.656;2023-04-03T16:45:06;4.90;;;1.70;;
75851;SDS011;64500;52.632;20.656;2023-04-03T16:47:34;7.00;;;2.30;;